createdAt,value
2023-02-05T00:04:57.470Z,5.82
2023-02-05T00:10:00.414Z,5.32
2023-02-05T00:15:01.921Z,5.10
2023-02-05T00:20:03.886Z,5.00
2023-02-05T00:25:07.485Z,5.00
2023-02-05T00:30:10.145Z,4.88
2023-02-05T00:35:11.669Z,5.28
2023-02-05T00:40:14.555Z,6.35
2023-02-05T00:45:16.202Z,7.90
2023-02-05T00:50:17.866Z,9.20
2023-02-05T00:55:20.784Z,9.88
2023-02-05T01:00:22.641Z,8.23
2023-02-05T01:05:24.260Z,6.18
2023-02-05T01:10:27.318Z,5.75
2023-02-05T01:15:28.965Z,6.15
2023-02-05T01:20:30.520Z,6.50
2023-02-05T01:25:33.755Z,6.03
2023-02-05T01:30:35.878Z,5.40
2023-02-05T01:35:37.526Z,5.50
2023-02-05T01:40:40.844Z,5.03
2023-02-05T01:46:15.283Z,5.78
2023-02-05T01:51:17.686Z,5.05
2023-02-05T01:56:23.446Z,4.68
2023-02-05T02:01:26.301Z,4.45
2023-02-05T02:06:27.816Z,4.82
2023-02-05T02:11:35.376Z,5.40
2023-02-05T02:16:38.813Z,4.68
2023-02-05T02:22:12.201Z,4.30
2023-02-05T02:27:40.443Z,4.78
2023-02-05T02:32:49.293Z,3.95
2023-02-05T02:37:58.242Z,4.57
2023-02-05T02:43:08.703Z,4.40
2023-02-05T02:48:11.331Z,4.70
2023-02-05T02:53:17.378Z,4.10
2023-02-05T02:58:24.930Z,4.85
2023-02-05T03:08:34.055Z,4.47
2023-02-05T03:13:37.076Z,4.53
2023-02-05T03:18:38.796Z,4.38
2023-02-05T03:23:40.466Z,4.40
2023-02-05T03:28:43.525Z,4.40
2023-02-05T03:33:57.198Z,4.60
2023-02-05T03:39:07.042Z,4.35
2023-02-05T03:44:28.439Z,4.20
2023-02-05T03:49:42.036Z,4.38
2023-02-05T03:54:50.229Z,4.30
2023-02-05T03:59:55.281Z,4.82
2023-02-05T04:04:56.802Z,6.43
2023-02-05T04:09:58.276Z,7.57
2023-02-05T04:15:01.860Z,8.25
2023-02-05T04:20:04.362Z,9.00
2023-02-05T04:25:06.803Z,9.02
2023-02-05T04:30:11.739Z,9.63
2023-02-05T04:35:13.330Z,9.45
2023-02-05T04:40:15.016Z,9.07
2023-02-05T04:45:17.894Z,8.70
2023-02-05T04:50:19.516Z,8.82
2023-02-05T04:55:21.945Z,8.63
2023-02-05T05:00:43.290Z,6.60
2023-02-05T05:05:44.799Z,5.35
2023-02-05T05:10:46.461Z,6.82
2023-02-05T05:15:54.936Z,6.65
2023-02-05T05:20:56.520Z,5.75
2023-02-05T05:25:58.089Z,5.57
2023-02-05T05:31:06.680Z,6.57
2023-02-05T05:36:09.223Z,12.82
2023-02-05T05:41:15.272Z,10.13
2023-02-05T05:46:20.409Z,9.30
2023-02-05T05:51:23.190Z,10.82
2023-02-05T05:56:25.055Z,10.52
2023-02-05T06:01:28.421Z,11.02
2023-02-05T06:06:29.939Z,17.70
2023-02-05T06:11:31.454Z,11.32
2023-02-05T06:16:34.368Z,16.38
2023-02-05T06:21:35.918Z,21.02
2023-02-05T06:26:37.422Z,19.73
2023-02-05T06:31:40.392Z,14.43
2023-02-05T06:36:41.905Z,16.35
2023-02-05T06:41:43.395Z,14.30
2023-02-05T06:46:46.251Z,22.70
2023-02-05T06:51:47.752Z,12.88
2023-02-05T06:56:49.259Z,12.18
2023-02-05T07:01:52.209Z,11.55
2023-02-05T07:06:54.676Z,27.73
2023-02-05T07:11:56.245Z,13.90
2023-02-05T07:16:59.059Z,11.32
2023-02-05T07:22:00.593Z,11.57
2023-02-05T07:27:02.141Z,11.55
2023-02-05T07:32:05.327Z,10.90
2023-02-05T07:37:06.867Z,9.32
2023-02-05T07:42:08.389Z,10.07
2023-02-05T07:47:11.380Z,10.27
2023-02-05T07:52:12.976Z,11.55
2023-02-05T07:57:14.538Z,11.90
2023-02-05T08:02:17.645Z,15.20
2023-02-05T08:07:19.170Z,28.65
2023-02-05T08:12:20.776Z,18.02
2023-02-05T08:17:23.585Z,19.08
2023-02-05T08:22:25.557Z,20.75
2023-02-05T08:27:29.326Z,21.13
2023-02-05T08:32:33.890Z,20.13
2023-02-05T08:37:35.470Z,21.00
2023-02-05T08:42:36.933Z,26.40
2023-02-05T08:47:39.769Z,27.60
2023-02-05T08:52:41.658Z,40.13
2023-02-05T08:57:43.127Z,29.73
2023-02-05T09:02:46.013Z,34.45
2023-02-05T09:07:47.531Z,39.35
2023-02-05T09:12:50.147Z,34.03
2023-02-05T09:17:53.013Z,30.25
2023-02-05T09:22:54.670Z,21.92
2023-02-05T09:27:56.390Z,18.35
2023-02-05T09:32:59.341Z,16.60
2023-02-05T09:38:00.965Z,19.33
2023-02-05T09:43:11.882Z,19.42
2023-02-05T09:48:39.977Z,17.35
2023-02-05T09:53:46.093Z,19.15
2023-02-05T09:58:51.866Z,17.90
2023-02-05T10:03:59.763Z,18.73
2023-02-05T10:09:14.786Z,12.90
2023-02-05T10:14:27.179Z,12.70
2023-02-05T10:19:53.831Z,11.07
2023-02-05T10:25:12.873Z,11.80
2023-02-05T10:30:21.134Z,11.07
2023-02-05T10:35:26.908Z,17.00
2023-02-05T10:40:30.515Z,10.95
2023-02-05T10:45:33.533Z,10.30
2023-02-05T10:50:48.869Z,10.60
2023-02-05T10:55:50.893Z,9.52
2023-02-05T11:00:52.670Z,9.93
2023-02-05T11:05:55.541Z,9.82
2023-02-05T11:10:57.266Z,10.27
2023-02-05T11:16:02.906Z,10.38
2023-02-05T11:21:07.407Z,11.98
2023-02-05T11:26:16.852Z,10.48
2023-02-05T11:31:21.859Z,11.82
2023-02-05T11:36:25.572Z,11.25
2023-02-05T11:41:29.622Z,11.23
2023-02-05T11:46:36.678Z,12.50
2023-02-05T11:51:45.518Z,13.80
2023-02-05T11:57:01.280Z,13.32
2023-02-05T12:02:25.598Z,12.73
2023-02-05T12:07:35.235Z,12.60
2023-02-05T12:12:44.973Z,13.40
2023-02-05T12:17:56.197Z,12.93
2023-02-05T12:23:27.917Z,11.65
2023-02-05T12:28:40.017Z,11.13
2023-02-05T12:34:04.100Z,10.10
2023-02-05T12:39:37.724Z,12.60
2023-02-05T12:44:56.074Z,10.55
2023-02-05T12:50:12.314Z,11.23
2023-02-05T12:55:26.428Z,11.93
2023-02-05T13:00:33.744Z,12.93
2023-02-05T13:05:40.423Z,11.93
2023-02-05T13:10:49.575Z,13.93
2023-02-05T13:16:01.010Z,13.75
2023-02-05T13:21:05.956Z,25.38
2023-02-05T13:26:13.187Z,42.17
2023-02-05T13:31:30.830Z,17.10
2023-02-05T13:37:01.848Z,14.73
2023-02-05T13:42:21.410Z,17.17
2023-02-05T13:47:38.859Z,15.27
2023-02-05T13:53:13.087Z,14.32
2023-02-05T13:58:20.849Z,12.00
2023-02-05T14:03:29.258Z,14.70
2023-02-05T14:08:37.529Z,17.38
2023-02-05T14:13:40.546Z,12.55
2023-02-05T14:18:48.322Z,13.38
2023-02-05T14:23:57.801Z,11.65
2023-02-05T14:29:00.678Z,13.73
2023-02-05T14:34:50.168Z,12.43
2023-02-05T14:39:51.930Z,12.60
2023-02-05T14:44:56.927Z,11.15
2023-02-05T14:50:02.642Z,10.20
2023-02-05T14:55:08.013Z,10.73
2023-02-05T15:00:25.481Z,11.15
2023-02-05T15:05:36.554Z,10.85
2023-02-05T15:10:47.302Z,21.52
2023-02-05T15:16:17.869Z,9.07
2023-02-05T15:21:28.495Z,8.98
2023-02-05T15:26:39.398Z,9.93
2023-02-05T15:31:45.849Z,9.15
2023-02-05T15:36:54.378Z,10.10
2023-02-05T15:41:58.632Z,11.48
2023-02-05T15:47:04.162Z,18.50
2023-02-05T15:52:06.825Z,7.18
2023-02-05T15:57:19.196Z,22.42
2023-02-05T16:02:24.521Z,30.48
2023-02-05T16:07:28.537Z,38.00
2023-02-05T16:12:30.131Z,38.35
2023-02-05T16:17:38.973Z,36.38
2023-02-05T16:22:43.630Z,31.80
2023-02-05T16:27:49.248Z,31.25
2023-02-05T16:32:55.627Z,27.05
2023-02-05T16:37:57.256Z,10.70
2023-02-05T16:42:59.008Z,32.40
2023-02-05T16:48:22.415Z,33.88
2023-02-05T16:53:26.839Z,35.58
2023-02-05T16:58:43.910Z,42.08
2023-02-05T17:03:49.290Z,24.97
2023-02-05T17:08:52.494Z,6.38
2023-02-05T17:14:10.857Z,16.48
2023-02-05T17:19:26.616Z,36.42
2023-02-05T17:24:28.157Z,39.45
2023-02-05T17:29:31.704Z,39.58
2023-02-05T17:34:34.579Z,37.40
2023-02-05T17:39:36.146Z,31.00
2023-02-05T17:44:37.754Z,8.27
2023-02-05T17:49:40.697Z,10.15
2023-02-05T17:54:42.553Z,10.98
2023-02-05T17:59:44.685Z,9.45
2023-02-05T18:04:47.569Z,6.65
2023-02-05T18:09:51.940Z,5.63
2023-02-05T18:14:53.909Z,6.28
2023-02-05T18:19:56.913Z,6.05
2023-02-05T18:24:58.431Z,5.32
2023-02-05T18:29:59.967Z,6.25
2023-02-05T18:35:02.903Z,5.38
2023-02-05T18:40:05.303Z,5.85
2023-02-05T18:45:07.946Z,4.03
2023-02-05T18:50:11.384Z,5.32
2023-02-05T18:55:13.005Z,4.30
2023-02-05T19:00:15.158Z,3.95
2023-02-05T19:05:18.322Z,4.43
2023-02-05T19:10:19.990Z,8.18
2023-02-05T19:15:21.520Z,7.63
2023-02-05T19:20:24.657Z,5.15
2023-02-05T19:25:26.223Z,5.10
2023-02-05T19:30:27.810Z,3.75
2023-02-05T19:35:30.672Z,4.20
2023-02-05T19:40:32.243Z,4.93
2023-02-05T19:45:36.281Z,6.90
2023-02-05T19:50:39.870Z,6.32
2023-02-05T19:55:41.504Z,8.77
2023-02-05T20:00:43.136Z,5.93
2023-02-05T20:05:46.012Z,8.35
2023-02-05T20:11:00.106Z,9.60
2023-02-05T20:16:02.374Z,8.30
2023-02-05T20:21:07.401Z,7.18
2023-02-05T20:26:09.383Z,8.32
2023-02-05T20:31:14.304Z,8.57
2023-02-05T20:36:17.269Z,7.82
2023-02-05T20:41:20.119Z,10.95
2023-02-05T20:46:21.801Z,9.82
2023-02-05T20:51:24.778Z,9.27
2023-02-05T20:56:28.091Z,14.18
2023-02-05T21:01:31.520Z,20.73
2023-02-05T21:06:37.032Z,16.88
2023-02-05T21:11:39.610Z,18.88
2023-02-05T21:16:41.168Z,16.08
2023-02-05T21:21:44.092Z,14.25
2023-02-05T21:26:48.856Z,15.93
2023-02-05T21:31:52.044Z,8.70
2023-02-05T21:36:55.967Z,13.55
2023-02-05T21:41:57.498Z,6.63
2023-02-05T21:46:59.035Z,7.68
2023-02-05T21:52:01.992Z,8.95
2023-02-05T21:57:03.922Z,9.00
2023-02-05T22:02:06.122Z,14.73
2023-02-05T22:07:09.432Z,11.73
2023-02-05T22:12:19.934Z,12.38
2023-02-05T22:17:21.484Z,10.88
2023-02-05T22:22:24.497Z,11.23
2023-02-05T22:27:26.006Z,7.25
2023-02-05T22:32:27.545Z,9.52
2023-02-05T22:37:30.368Z,11.88
2023-02-05T22:42:33.008Z,12.93
2023-02-05T22:47:34.521Z,15.20
2023-02-05T22:52:37.418Z,14.00
2023-02-05T22:57:38.951Z,11.18
2023-02-05T23:02:40.534Z,17.95
2023-02-05T23:07:43.397Z,16.45
2023-02-05T23:12:44.991Z,16.80
2023-02-05T23:17:46.502Z,20.80
2023-02-05T23:22:49.376Z,23.17
2023-02-05T23:27:51.020Z,23.73
2023-02-05T23:32:52.622Z,18.92
2023-02-05T23:37:55.559Z,21.67
2023-02-05T23:42:57.076Z,24.00
2023-02-05T23:47:58.655Z,24.77
2023-02-05T23:53:01.762Z,22.23
2023-02-05T23:58:03.347Z,19.58
